Oriibu — JD2579 — position and weather

sailwx.info

Track history (hours):
 
Tides and Currents Weather Stations Pressure Air Temp Water Temp Dewpoint Dewpoint Depression Visibility Wind Speed Wind Dir Waves Ship Positions

Oriibu

Last reported at 2017-Aug-19 07:00 UTC. Time now 2017-Aug-19 07:25 UTC.
Position N 35°24' E 139°40'.

Length 75 m; draft 3.6 m.

MMSI: 431000426.

Date/timePositionNaut miles runAvg speedWind from/ knotsBaromVisibWave heightAir tempDewpointWater temp
2017-Aug-19 07:00N 35°24' E 139°40'0 0.0
2017-Aug-19 06:30N 35°24' E 139°40'0 0.0
2017-Aug-19 06:00N 35°24' E 139°40'0 0.0
2017-Aug-19 05:30N 35°24' E 139°40'0 0.0
2017-Aug-19 05:00N 35°24' E 139°40'0 0.0
2017-Aug-19 04:30N 35°24' E 139°40'0 0.0
2017-Aug-19 04:00N 35°24' E 139°40'0 0.0
2017-Aug-19 03:30N 35°24' E 139°40'0 0.0
2017-Aug-19 03:00N 35°24' E 139°40'0 0.0
2017-Aug-19 02:30N 35°24' E 139°40'0 0.0
2017-Aug-19 02:00N 35°24' E 139°40'0 0.0
2017-Aug-19 01:30N 35°24' E 139°40'0 0.0
2017-Aug-19 01:00N 35°24' E 139°40'0 0.0
2017-Aug-19 00:30N 35°24' E 139°40'0 0.0
2017-Aug-19 00:00N 35°24' E 139°40'0 0.0
2017-Aug-18 23:30N 35°24' E 139°40'0 0.0
2017-Aug-18 23:00N 35°24' E 139°40'0 0.5
2017-Aug-18 22:30N 35°24' E 139°40'2 3.1
2017-Aug-18 22:00N 35°23' E 139°40'0 0.0
2017-Aug-18 21:30N 35°23' E 139°40'0 0.0
2017-Aug-18 21:00N 35°23' E 139°40'0 0.0
2017-Aug-18 20:30N 35°23' E 139°40'0 0.0
2017-Aug-18 20:00N 35°23' E 139°40'0 0.0
2017-Aug-18 19:30N 35°23' E 139°40'0 0.0
2017-Aug-18 19:00N 35°23' E 139°40'0 0.0
2017-Aug-18 18:30N 35°23' E 139°40'0 0.1
2017-Aug-18 18:00N 35°23' E 139°40'0 0.0
2017-Aug-18 17:30N 35°23' E 139°40'0 0.0
2017-Aug-18 17:00N 35°23' E 139°40'0 0.1
2017-Aug-18 16:30N 35°23' E 139°40'0 0.0
2017-Aug-18 16:00N 35°23' E 139°40'0 0.0
2017-Aug-18 15:30N 35°23' E 139°40'0 0.0
2017-Aug-18 15:00N 35°23' E 139°40'0 0.0
2017-Aug-18 14:30N 35°23' E 139°40'0 0.0
2017-Aug-18 13:30N 35°23' E 139°40'0 0.0
2017-Aug-18 13:00N 35°23' E 139°40'0 0.0
2017-Aug-18 12:30N 35°23' E 139°40'0 0.0
2017-Aug-18 12:00N 35°23' E 139°40'0 0.0
2017-Aug-18 11:30N 35°23' E 139°40'0 0.1
2017-Aug-18 11:00N 35°23' E 139°40'0 0.1
2017-Aug-18 10:30N 35°23' E 139°40'0 0.0
2017-Aug-18 10:00N 35°23' E 139°40'0 0.0
2017-Aug-18 09:31N 35°23' E 139°40'510.9
2017-Aug-18 09:00N 35°26' E 139°45'612.5
2017-Aug-18 08:30N 35°30' E 139°51'8 1.4
2017-Aug-18 02:54N 35°38' E 139°48'0 1.2
2017-Aug-18 02:30N 35°37' E 139°48'3 5.3
2017-Aug-18 02:00N 35°35' E 139°50'1 2.5
2017-Aug-18 01:30N 35°34' E 139°50'0 0.0
2017-Aug-18 01:00N 35°34' E 139°50'0 0.0
2017-Aug-18 00:30N 35°34' E 139°50'0 0.0
2017-Aug-18 00:00N 35°34' E 139°50'0 0.0
2017-Aug-17 23:30N 35°34' E 139°50'0 0.0
2017-Aug-17 23:00N 35°34' E 139°50'0 0.0
2017-Aug-17 22:30N 35°34' E 139°50'0 0.0
2017-Aug-17 21:57N 35°34' E 139°50'0 0.0
2017-Aug-17 21:30N 35°34' E 139°50'0 0.1
2017-Aug-17 21:00N 35°34' E 139°50'0 0.0
2017-Aug-17 20:30N 35°34' E 139°50'0 0.0
2017-Aug-17 20:00N 35°34' E 139°50'0 0.0
2017-Aug-17 19:30N 35°34' E 139°50'0 0.0
2017-Aug-17 19:00N 35°34' E 139°50'0 0.0
2017-Aug-17 18:30N 35°34' E 139°50'0 0.0
2017-Aug-17 18:00N 35°34' E 139°50'0 0.0
2017-Aug-17 17:30N 35°34' E 139°50'0 0.0
2017-Aug-17 17:00N 35°34' E 139°50'0 0.0
2017-Aug-17 16:30N 35°34' E 139°50'0 0.0
2017-Aug-17 16:00N 35°34' E 139°50'0 0.0
2017-Aug-17 15:30N 35°34' E 139°50'0 0.0
2017-Aug-17 15:00N 35°34' E 139°50'0 0.0
2017-Aug-17 14:30N 35°34' E 139°50'0 0.0
2017-Aug-17 14:00N 35°34' E 139°50'0 0.0
2017-Aug-17 13:30N 35°34' E 139°50'0 0.1
2017-Aug-17 13:00N 35°34' E 139°50'0 0.1
2017-Aug-17 12:30N 35°34' E 139°50'0 0.1
2017-Aug-17 12:00N 35°34' E 139°50'0 0.0
2017-Aug-17 11:30N 35°34' E 139°50'0 0.0
2017-Aug-17 11:00N 35°34' E 139°50'0 0.0
2017-Aug-17 10:30N 35°34' E 139°50'0 0.0
2017-Aug-17 10:00N 35°34' E 139°50'0 0.1
2017-Aug-17 09:30N 35°34' E 139°50'0 0.0
2017-Aug-17 09:00N 35°34' E 139°50'0 0.0
2017-Aug-17 08:30N 35°34' E 139°50'0 0.0
2017-Aug-17 08:00N 35°34' E 139°50'0 0.0
2017-Aug-17 07:29N 35°34' E 139°50'0 0.0
2017-Aug-17 07:00N 35°34' E 139°50'4 6.7
2017-Aug-17 06:27N 35°31' E 139°52'510.5
2017-Aug-17 06:01N 35°27' E 139°49'510.5
2017-Aug-17 05:30N 35°22' E 139°45'5 9.6
2017-Aug-17 05:00N 35°18' E 139°45'5 9.9
2017-Aug-17 04:30N 35°13' E 139°47'510.4
2017-Aug-17 04:00N 35°08' E 139°45'510.3
2017-Aug-17 03:30N 35°03' E 139°42'610.8
2017-Aug-17 02:59N 34°60' E 139°37'  
2017-Aug-14 09:46N 34°37' E 134°56'310.6
2017-Aug-14 09:28N 34°37' E 134°60'4 9.7
2017-Aug-14 09:00N 34°36' E 135°05'611.1
2017-Aug-14 08:30N 34°36' E 135°11'611.5
2017-Aug-14 08:00N 34°34' E 135°18'510.1
2017-Aug-14 07:29N 34°31' E 135°23'0 0.0
2017-Aug-14 04:24N 34°31' E 135°24'0 0.0
2017-Aug-14 04:00N 34°31' E 135°24'0 0.0
2017-Aug-14 03:30N 34°31' E 135°24'0 0.0
2017-Aug-14 02:59N 34°31' E 135°24'0 0.0
2017-Aug-14 02:29N 34°31' E 135°24'0 0.0
2017-Aug-14 02:00N 34°31' E 135°24'0 0.0
2017-Aug-14 01:27N 34°31' E 135°24'0 0.0
2017-Aug-14 00:55N 34°31' E 135°24'0 0.0
2017-Aug-14 00:19N 34°31' E 135°24'0 0.0
2017-Aug-14 00:00N 34°31' E 135°24'0 0.0
2017-Aug-13 23:29N 34°31' E 135°24'0 0.0
2017-Aug-13 22:59N 34°31' E 135°24'2 3.0
2017-Aug-13 22:22N 34°32' E 135°23'1 3.5
2017-Aug-13 22:00N 34°33' E 135°21'0 0.1
2017-Aug-13 20:41N 34°33' E 135°21'0 0.0
2017-Aug-13 20:30N 34°33' E 135°21'0 0.0
2017-Aug-13 20:00N 34°33' E 135°21'0 0.0
2017-Aug-13 19:30N 34°33' E 135°21'0 0.0
2017-Aug-13 18:59N 34°33' E 135°21'0 0.0
2017-Aug-13 18:29N 34°33' E 135°21'0 0.0
2017-Aug-13 16:59N 34°33' E 135°21'0 0.0
2017-Aug-13 16:19N 34°33' E 135°21'0 0.0
2017-Aug-13 15:53N 34°33' E 135°21'0 0.0
2017-Aug-13 15:13N 34°33' E 135°21'0 0.0
2017-Aug-13 15:00N 34°33' E 135°21'0 0.0
2017-Aug-13 14:11N 34°33' E 135°21'0 0.0
2017-Aug-13 14:00N 34°33' E 135°21'0 0.0
2017-Aug-13 13:30N 34°33' E 135°21'1 2.4
2017-Aug-13 13:00N 34°33' E 135°19'510.9
2017-Aug-13 12:30N 34°34' E 135°13'612.0
2017-Aug-13 12:00N 34°34' E 135°06'  
2017-Aug-09 17:25N 34°37' E 134°58'3 7.5
2017-Aug-09 17:00N 34°37' E 135°02'4 8.6
2017-Aug-09 16:30N 34°34' E 135°05'  
Track history (hours):
 
Tides and Currents Weather Stations Pressure Air Temp Water Temp Dewpoint Dewpoint Depression Visibility Wind Speed Wind Dir Waves Ship Positions

Oriibu

Last reported at 2017-Aug-19 07:00 UTC. Time now 2017-Aug-19 07:25 UTC.
Position N 35°24' E 139°40'.

Length 75 m; draft 3.6 m.

MMSI: 431000426.

Date/timePositionNaut miles runAvg speedWind from/ knotsBaromVisibWave heightAir tempDewpointWater temp
2017-Aug-19 07:00N 35°24' E 139°40'0 0.0
2017-Aug-19 06:30N 35°24' E 139°40'0 0.0
2017-Aug-19 06:00N 35°24' E 139°40'0 0.0
2017-Aug-19 05:30N 35°24' E 139°40'0 0.0
2017-Aug-19 05:00N 35°24' E 139°40'0 0.0
2017-Aug-19 04:30N 35°24' E 139°40'0 0.0
2017-Aug-19 04:00N 35°24' E 139°40'0 0.0
2017-Aug-19 03:30N 35°24' E 139°40'0 0.0
2017-Aug-19 03:00N 35°24' E 139°40'0 0.0
2017-Aug-19 02:30N 35°24' E 139°40'0 0.0
2017-Aug-19 02:00N 35°24' E 139°40'0 0.0
2017-Aug-19 01:30N 35°24' E 139°40'0 0.0
2017-Aug-19 01:00N 35°24' E 139°40'0 0.0
2017-Aug-19 00:30N 35°24' E 139°40'0 0.0
2017-Aug-19 00:00N 35°24' E 139°40'0 0.0
2017-Aug-18 23:30N 35°24' E 139°40'0 0.0
2017-Aug-18 23:00N 35°24' E 139°40'0 0.5
2017-Aug-18 22:30N 35°24' E 139°40'2 3.1
2017-Aug-18 22:00N 35°23' E 139°40'0 0.0
2017-Aug-18 21:30N 35°23' E 139°40'0 0.0
2017-Aug-18 21:00N 35°23' E 139°40'0 0.0
2017-Aug-18 20:30N 35°23' E 139°40'0 0.0
2017-Aug-18 20:00N 35°23' E 139°40'0 0.0
2017-Aug-18 19:30N 35°23' E 139°40'0 0.0
2017-Aug-18 19:00N 35°23' E 139°40'0 0.0
2017-Aug-18 18:30N 35°23' E 139°40'0 0.1
2017-Aug-18 18:00N 35°23' E 139°40'0 0.0
2017-Aug-18 17:30N 35°23' E 139°40'0 0.0
2017-Aug-18 17:00N 35°23' E 139°40'0 0.1
2017-Aug-18 16:30N 35°23' E 139°40'0 0.0
2017-Aug-18 16:00N 35°23' E 139°40'0 0.0
2017-Aug-18 15:30N 35°23' E 139°40'0 0.0
2017-Aug-18 15:00N 35°23' E 139°40'0 0.0
2017-Aug-18 14:30N 35°23' E 139°40'0 0.0
2017-Aug-18 13:30N 35°23' E 139°40'0 0.0
2017-Aug-18 13:00N 35°23' E 139°40'0 0.0
2017-Aug-18 12:30N 35°23' E 139°40'0 0.0
2017-Aug-18 12:00N 35°23' E 139°40'0 0.0
2017-Aug-18 11:30N 35°23' E 139°40'0 0.1
2017-Aug-18 11:00N 35°23' E 139°40'0 0.1
2017-Aug-18 10:30N 35°23' E 139°40'0 0.0
2017-Aug-18 10:00N 35°23' E 139°40'0 0.0
2017-Aug-18 09:31N 35°23' E 139°40'510.9
2017-Aug-18 09:00N 35°26' E 139°45'612.5
2017-Aug-18 08:30N 35°30' E 139°51'8 1.4
2017-Aug-18 02:54N 35°38' E 139°48'0 1.2
2017-Aug-18 02:30N 35°37' E 139°48'3 5.3
2017-Aug-18 02:00N 35°35' E 139°50'1 2.5
2017-Aug-18 01:30N 35°34' E 139°50'0 0.0
2017-Aug-18 01:00N 35°34' E 139°50'0 0.0
2017-Aug-18 00:30N 35°34' E 139°50'0 0.0
2017-Aug-18 00:00N 35°34' E 139°50'0 0.0
2017-Aug-17 23:30N 35°34' E 139°50'0 0.0
2017-Aug-17 23:00N 35°34' E 139°50'0 0.0
2017-Aug-17 22:30N 35°34' E 139°50'0 0.0
2017-Aug-17 21:57N 35°34' E 139°50'0 0.0
2017-Aug-17 21:30N 35°34' E 139°50'0 0.1
2017-Aug-17 21:00N 35°34' E 139°50'0 0.0
2017-Aug-17 20:30N 35°34' E 139°50'0 0.0
2017-Aug-17 20:00N 35°34' E 139°50'0 0.0
2017-Aug-17 19:30N 35°34' E 139°50'0 0.0
2017-Aug-17 19:00N 35°34' E 139°50'0 0.0
2017-Aug-17 18:30N 35°34' E 139°50'0 0.0
2017-Aug-17 18:00N 35°34' E 139°50'0 0.0
2017-Aug-17 17:30N 35°34' E 139°50'0 0.0
2017-Aug-17 17:00N 35°34' E 139°50'0 0.0
2017-Aug-17 16:30N 35°34' E 139°50'0 0.0
2017-Aug-17 16:00N 35°34' E 139°50'0 0.0
2017-Aug-17 15:30N 35°34' E 139°50'0 0.0
2017-Aug-17 15:00N 35°34' E 139°50'0 0.0
2017-Aug-17 14:30N 35°34' E 139°50'0 0.0
2017-Aug-17 14:00N 35°34' E 139°50'0 0.0
2017-Aug-17 13:30N 35°34' E 139°50'0 0.1
2017-Aug-17 13:00N 35°34' E 139°50'0 0.1
2017-Aug-17 12:30N 35°34' E 139°50'0 0.1
2017-Aug-17 12:00N 35°34' E 139°50'0 0.0
2017-Aug-17 11:30N 35°34' E 139°50'0 0.0
2017-Aug-17 11:00N 35°34' E 139°50'0 0.0
2017-Aug-17 10:30N 35°34' E 139°50'0 0.0
2017-Aug-17 10:00N 35°34' E 139°50'0 0.1
2017-Aug-17 09:30N 35°34' E 139°50'0 0.0
2017-Aug-17 09:00N 35°34' E 139°50'0 0.0
2017-Aug-17 08:30N 35°34' E 139°50'0 0.0
2017-Aug-17 08:00N 35°34' E 139°50'0 0.0
2017-Aug-17 07:29N 35°34' E 139°50'0 0.0
2017-Aug-17 07:00N 35°34' E 139°50'4 6.7
2017-Aug-17 06:27N 35°31' E 139°52'510.5
2017-Aug-17 06:01N 35°27' E 139°49'510.5
2017-Aug-17 05:30N 35°22' E 139°45'5 9.6
2017-Aug-17 05:00N 35°18' E 139°45'5 9.9
2017-Aug-17 04:30N 35°13' E 139°47'510.4
2017-Aug-17 04:00N 35°08' E 139°45'510.3
2017-Aug-17 03:30N 35°03' E 139°42'610.8
2017-Aug-17 02:59N 34°60' E 139°37'  
2017-Aug-14 09:46N 34°37' E 134°56'310.6
2017-Aug-14 09:28N 34°37' E 134°60'4 9.7
2017-Aug-14 09:00N 34°36' E 135°05'611.1
2017-Aug-14 08:30N 34°36' E 135°11'611.5
2017-Aug-14 08:00N 34°34' E 135°18'510.1
2017-Aug-14 07:29N 34°31' E 135°23'0 0.0
2017-Aug-14 04:24N 34°31' E 135°24'0 0.0
2017-Aug-14 04:00N 34°31' E 135°24'0 0.0
2017-Aug-14 03:30N 34°31' E 135°24'0 0.0
2017-Aug-14 02:59N 34°31' E 135°24'0 0.0
2017-Aug-14 02:29N 34°31' E 135°24'0 0.0
2017-Aug-14 02:00N 34°31' E 135°24'0 0.0
2017-Aug-14 01:27N 34°31' E 135°24'0 0.0
2017-Aug-14 00:55N 34°31' E 135°24'0 0.0
2017-Aug-14 00:19N 34°31' E 135°24'0 0.0
2017-Aug-14 00:00N 34°31' E 135°24'0 0.0
2017-Aug-13 23:29N 34°31' E 135°24'0 0.0
2017-Aug-13 22:59N 34°31' E 135°24'2 3.0
2017-Aug-13 22:22N 34°32' E 135°23'1 3.5
2017-Aug-13 22:00N 34°33' E 135°21'0 0.1
2017-Aug-13 20:41N 34°33' E 135°21'0 0.0
2017-Aug-13 20:30N 34°33' E 135°21'0 0.0
2017-Aug-13 20:00N 34°33' E 135°21'0 0.0
2017-Aug-13 19:30N 34°33' E 135°21'0 0.0
2017-Aug-13 18:59N 34°33' E 135°21'0 0.0
2017-Aug-13 18:29N 34°33' E 135°21'0 0.0
2017-Aug-13 16:59N 34°33' E 135°21'0 0.0
2017-Aug-13 16:19N 34°33' E 135°21'0 0.0
2017-Aug-13 15:53N 34°33' E 135°21'0 0.0
2017-Aug-13 15:13N 34°33' E 135°21'0 0.0
2017-Aug-13 15:00N 34°33' E 135°21'0 0.0
2017-Aug-13 14:11N 34°33' E 135°21'0 0.0
2017-Aug-13 14:00N 34°33' E 135°21'0 0.0
2017-Aug-13 13:30N 34°33' E 135°21'1 2.4
2017-Aug-13 13:00N 34°33' E 135°19'510.9
2017-Aug-13 12:30N 34°34' E 135°13'612.0
2017-Aug-13 12:00N 34°34' E 135°06'  
2017-Aug-09 17:25N 34°37' E 134°58'3 7.5
2017-Aug-09 17:00N 34°37' E 135°02'4 8.6
2017-Aug-09 16:30N 34°34' E 135°05'  

Dump ship's entire track history